CheckWX is a tool to help pilots better visualize weather data.  It is not intended as a substitute for an official pre-flight weather briefing.

20:31:31 UTC

KEKS TAF
Ennis - Big Sky Airport
Ennis, Montana, USA
KEKS 221720Z 2218/2318 20008KT P6SM SCT090 BKN250 FM222100 19011KT P6SM VCSH SCT020 SCT090 PROB30 2303/2306 4SM -SNRA BKN015 FM230600 17011G19KT 4SM -SN SCT010 BKN050 FM231200 VRB05KT P6SM SCT007 BKN050

Mar-22@
18:00 UTC

Mar-22 @ 18:00 UTC

Mar-22@
21:00 UTC

Mar-22 @ 21:00 UTC

KEKS 221720Z 2218/2318 20008KT P6SM SCT090 BKN250
Wind
  • 200° at 8 KTS
Cloud Levels
  • Scattered at 9,000' AGL
  • Broken at 25,000' AGL

Mar-22@
21:00 UTC

Mar-22 @ 21:00 UTC

Mar-23@
06:00 UTC

Mar-23 @ 06:00 UTC

FM222100 19011KT P6SM VCSH SCT020 SCT090

From

From Standard forecast or significant change

Wind
  • 190° at 11 KTS
Cloud Levels
  • Scattered at 2,000' AGL
  • Scattered at 9,000' AGL

Mar-23@
03:00 UTC

Mar-23 @ 03:00 UTC

Mar-23@
06:00 UTC

Mar-23 @ 06:00 UTC

PROB30 2303/2306 4SM -SNRA BKN015

Probable - 30% Likelihood

Probable - 30% Likelihood during this time.

Conditions
Light Snow, Light Rain
Cloud Levels
  • Broken at 1,500' AGL

Mar-23@
06:00 UTC

Mar-23 @ 06:00 UTC

Mar-23@
12:00 UTC

Mar-23 @ 12:00 UTC

FM230600 17011G19KT 4SM -SN SCT010 BKN050

From

From Standard forecast or significant change

Wind
  • 170° at 11 KTS
  • {Gusting to 19 KTS
Conditions
Light Snow
Cloud Levels
  • Scattered at 1,000' AGL
  • Broken at 5,000' AGL

Mar-23@
12:00 UTC

Mar-23 @ 12:00 UTC

Mar-23@
18:00 UTC

Mar-23 @ 18:00 UTC

FM231200 VRB05KT P6SM SCT007 BKN050

From

From Standard forecast or significant change

Wind
  • Variable at 5 KTS
Cloud Levels
  • Scattered at 700' AGL
  • Broken at 5,000' AGL